sensor_id;sensor_type;location;lat;lon;timestamp;pressure;altitude;pressure_sealevel;temperature;humidity
250;BME280;109;19.806;-70.704;2022-10-26T00:00:12;101175.16;;;25.12;64.95
250;BME280;109;19.806;-70.704;2022-10-26T00:02:39;101176.09;;;25.11;65.19
250;BME280;109;19.806;-70.704;2022-10-26T00:05:06;101187.06;;;25.06;64.97
250;BME280;109;19.806;-70.704;2022-10-26T00:07:33;101182.72;;;25.04;64.91
250;BME280;109;19.806;-70.704;2022-10-26T00:10:00;101180.97;;;25.03;64.95
250;BME280;109;19.806;-70.704;2022-10-26T00:12:26;101185.66;;;24.98;64.85
250;BME280;109;19.806;-70.704;2022-10-26T00:14:53;101190.00;;;25.00;64.98
250;BME280;109;19.806;-70.704;2022-10-26T00:17:19;101184.44;;;25.05;64.92
250;BME280;109;19.806;-70.704;2022-10-26T00:19:46;101195.16;;;25.05;64.93
250;BME280;109;19.806;-70.704;2022-10-26T00:22:12;101196.38;;;24.98;64.86
250;BME280;109;19.806;-70.704;2022-10-26T00:24:38;101198.44;;;24.93;64.63
250;BME280;109;19.806;-70.704;2022-10-26T00:27:05;101201.25;;;24.90;64.60
250;BME280;109;19.806;-70.704;2022-10-26T00:29:31;101197.75;;;24.88;65.09
250;BME280;109;19.806;-70.704;2022-10-26T00:31:58;101195.97;;;24.88;64.92
250;BME280;109;19.806;-70.704;2022-10-26T00:34:31;101179.03;;;24.88;64.65
250;BME280;109;19.806;-70.704;2022-10-26T00:36:57;101172.72;;;24.89;64.79
250;BME280;109;19.806;-70.704;2022-10-26T00:39:38;101181.50;;;24.92;65.07
250;BME280;109;19.806;-70.704;2022-10-26T00:42:21;101180.31;;;24.98;65.08
250;BME280;109;19.806;-70.704;2022-10-26T00:45:14;101185.59;;;24.99;65.01
250;BME280;109;19.806;-70.704;2022-10-26T00:47:55;101197.91;;;25.03;64.85
250;BME280;109;19.806;-70.704;2022-10-26T00:50:41;101207.25;;;24.95;64.69
250;BME280;109;19.806;-70.704;2022-10-26T00:53:16;101213.75;;;24.89;65.03
250;BME280;109;19.806;-70.704;2022-10-26T00:55:57;101228.16;;;24.87;65.11
250;BME280;109;19.806;-70.704;2022-10-26T00:58:24;101219.50;;;24.82;65.16
250;BME280;109;19.806;-70.704;2022-10-26T01:01:05;101229.41;;;24.80;65.13
250;BME280;109;19.806;-70.704;2022-10-26T01:03:33;101225.91;;;24.78;65.31
250;BME280;109;19.806;-70.704;2022-10-26T01:06:13;101231.28;;;24.78;65.09
250;BME280;109;19.806;-70.704;2022-10-26T01:08:42;101228.75;;;24.73;65.13
250;BME280;109;19.806;-70.704;2022-10-26T01:11:22;101236.84;;;24.71;65.27
250;BME280;109;19.806;-70.704;2022-10-26T01:13:50;101234.34;;;24.68;64.99
250;BME280;109;19.806;-70.704;2022-10-26T01:31:59;101258.28;;;24.71;64.95
250;BME280;109;19.806;-70.704;2022-10-26T01:34:54;101248.66;;;24.67;64.82
250;BME280;109;19.806;-70.704;2022-10-26T01:37:45;101239.03;;;24.63;65.03
250;BME280;109;19.806;-70.704;2022-10-26T01:40:53;101232.75;;;24.64;65.28
250;BME280;109;19.806;-70.704;2022-10-26T01:43:41;101226.72;;;24.59;65.16
250;BME280;109;19.806;-70.704;2022-10-26T01:46:25;101220.66;;;24.56;65.23
250;BME280;109;19.806;-70.704;2022-10-26T01:48:59;101217.81;;;24.59;65.55
250;BME280;109;19.806;-70.704;2022-10-26T01:51:42;101216.88;;;24.60;65.62
250;BME280;109;19.806;-70.704;2022-10-26T01:54:23;101230.44;;;24.57;65.39
250;BME280;109;19.806;-70.704;2022-10-26T01:56:56;101240.97;;;24.60;65.69
250;BME280;109;19.806;-70.704;2022-10-26T02:16:56;101208.41;;;24.50;65.19
250;BME280;109;19.806;-70.704;2022-10-26T02:19:48;101199.31;;;24.54;65.21
250;BME280;109;19.806;-70.704;2022-10-26T02:25:33;101189.13;;;24.62;65.12
250;BME280;109;19.806;-70.704;2022-10-26T02:28:12;101185.00;;;24.55;65.19
250;BME280;109;19.806;-70.704;2022-10-26T02:30:56;101190.34;;;24.55;64.92
250;BME280;109;19.806;-70.704;2022-10-26T02:33:34;101196.78;;;24.51;64.86
250;BME280;109;19.806;-70.704;2022-10-26T02:36:28;101201.06;;;24.55;64.76
250;BME280;109;19.806;-70.704;2022-10-26T02:39:04;101191.41;;;24.51;64.68
250;BME280;109;19.806;-70.704;2022-10-26T02:41:52;101193.44;;;24.46;64.73
250;BME280;109;19.806;-70.704;2022-10-26T02:44:41;101188.06;;;24.46;64.87
250;BME280;109;19.806;-70.704;2022-10-26T02:47:15;101191.63;;;24.47;64.83
250;BME280;109;19.806;-70.704;2022-10-26T02:49:58;101187.00;;;24.50;64.86
250;BME280;109;19.806;-70.704;2022-10-26T02:55:14;101187.44;;;24.41;64.64
250;BME280;109;19.806;-70.704;2022-10-26T02:58:01;101188.25;;;24.43;64.84
250;BME280;109;19.806;-70.704;2022-10-26T03:00:43;101196.09;;;24.46;64.77
250;BME280;109;19.806;-70.704;2022-10-26T03:03:11;101195.84;;;24.52;64.81
250;BME280;109;19.806;-70.704;2022-10-26T03:05:53;101187.00;;;24.50;64.84
250;BME280;109;19.806;-70.704;2022-10-26T03:08:19;101183.66;;;24.45;64.67
250;BME280;109;19.806;-70.704;2022-10-26T03:10:59;101173.75;;;24.47;64.72
250;BME280;109;19.806;-70.704;2022-10-26T03:13:25;101172.97;;;24.45;64.78
250;BME280;109;19.806;-70.704;2022-10-26T03:16:05;101190.03;;;24.43;64.74
250;BME280;109;19.806;-70.704;2022-10-26T03:18:31;101195.47;;;24.41;64.77
250;BME280;109;19.806;-70.704;2022-10-26T03:21:12;101198.19;;;24.39;64.71
250;BME280;109;19.806;-70.704;2022-10-26T03:23:38;101198.78;;;24.46;64.72
250;BME280;109;19.806;-70.704;2022-10-26T03:26:19;101187.44;;;24.41;64.60
250;BME280;109;19.806;-70.704;2022-10-26T03:28:45;101180.22;;;24.43;64.62
250;BME280;109;19.806;-70.704;2022-10-26T03:31:25;101172.81;;;24.48;64.54
250;BME280;109;19.806;-70.704;2022-10-26T03:33:51;101177.53;;;24.43;64.61
250;BME280;109;19.806;-70.704;2022-10-26T03:36:32;101187.31;;;24.44;64.61
250;BME280;109;19.806;-70.704;2022-10-26T03:38:58;101183.81;;;24.42;64.89
250;BME280;109;19.806;-70.704;2022-10-26T03:41:45;101182.72;;;24.46;64.59
250;BME280;109;19.806;-70.704;2022-10-26T03:44:34;101182.09;;;24.41;64.60
250;BME280;109;19.806;-70.704;2022-10-26T03:47:07;101177.66;;;24.40;64.69
250;BME280;109;19.806;-70.704;2022-10-26T03:49:46;101172.19;;;24.43;64.72
250;BME280;109;19.806;-70.704;2022-10-26T03:52:13;101171.25;;;24.44;64.81
250;BME280;109;19.806;-70.704;2022-10-26T03:54:56;101170.66;;;24.37;64.88
250;BME280;109;19.806;-70.704;2022-10-26T03:57:22;101175.00;;;24.40;64.98
250;BME280;109;19.806;-70.704;2022-10-26T04:00:02;101169.97;;;24.32;65.19
250;BME280;109;19.806;-70.704;2022-10-26T04:02:37;101178.75;;;24.36;64.99
250;BME280;109;19.806;-70.704;2022-10-26T04:05:20;101173.81;;;24.27;65.18
250;BME280;109;19.806;-70.704;2022-10-26T04:07:58;101179.16;;;24.27;65.03
250;BME280;109;19.806;-70.704;2022-10-26T04:10:39;101176.63;;;24.24;65.21
250;BME280;109;19.806;-70.704;2022-10-26T04:13:05;101171.34;;;24.22;65.47
250;BME280;109;19.806;-70.704;2022-10-26T04:15:45;101168.66;;;24.22;65.33
250;BME280;109;19.806;-70.704;2022-10-26T04:18:11;101168.66;;;24.22;65.14
250;BME280;109;19.806;-70.704;2022-10-26T04:20:51;101170.72;;;24.16;65.27
250;BME280;109;19.806;-70.704;2022-10-26T04:23:18;101170.84;;;24.13;65.36
250;BME280;109;19.806;-70.704;2022-10-26T04:25:59;101170.91;;;24.11;65.20
250;BME280;109;19.806;-70.704;2022-10-26T04:28:25;101174.34;;;24.15;65.32
250;BME280;109;19.806;-70.704;2022-10-26T04:31:06;101175.97;;;24.19;65.30
250;BME280;109;19.806;-70.704;2022-10-26T04:33:32;101185.56;;;24.23;65.14
250;BME280;109;19.806;-70.704;2022-10-26T04:36:12;101183.03;;;24.20;65.53
250;BME280;109;19.806;-70.704;2022-10-26T04:38:38;101178.81;;;24.14;65.30
250;BME280;109;19.806;-70.704;2022-10-26T04:41:25;101185.00;;;24.16;65.04
250;BME280;109;19.806;-70.704;2022-10-26T04:44:06;101191.38;;;24.12;65.23
250;BME280;109;19.806;-70.704;2022-10-26T04:46:46;101186.16;;;24.09;65.42
250;BME280;109;19.806;-70.704;2022-10-26T04:49:26;101192.31;;;24.11;65.68
250;BME280;109;19.806;-70.704;2022-10-26T04:51:52;101189.63;;;24.11;65.37
250;BME280;109;19.806;-70.704;2022-10-26T04:54:32;101180.75;;;24.11;65.40
250;BME280;109;19.806;-70.704;2022-10-26T04:56:58;101177.19;;;24.10;65.15
250;BME280;109;19.806;-70.704;2022-10-26T04:59:39;101172.84;;;24.08;65.47
250;BME280;109;19.806;-70.704;2022-10-26T05:02:05;101160.34;;;24.08;65.63
250;BME280;109;19.806;-70.704;2022-10-26T05:04:45;101151.47;;;24.08;65.58
250;BME280;109;19.806;-70.704;2022-10-26T05:07:11;101148.78;;;24.08;65.43
250;BME280;109;19.806;-70.704;2022-10-26T05:09:51;101150.75;;;24.04;65.56
250;BME280;109;19.806;-70.704;2022-10-26T05:12:17;101159.56;;;24.06;65.80
250;BME280;109;19.806;-70.704;2022-10-26T05:14:58;101151.81;;;24.00;65.80
250;BME280;109;19.806;-70.704;2022-10-26T05:17:27;101139.38;;;23.99;65.85
250;BME280;109;19.806;-70.704;2022-10-26T05:20:07;101142.03;;;23.99;65.95
250;BME280;109;19.806;-70.704;2022-10-26T05:22:51;101152.25;;;24.10;65.62
250;BME280;109;19.806;-70.704;2022-10-26T05:25:37;101158.78;;;24.04;65.62
250;BME280;109;19.806;-70.704;2022-10-26T05:28:11;101160.63;;;24.02;65.73
250;BME280;109;19.806;-70.704;2022-10-26T05:30:53;101162.56;;;23.98;65.85
250;BME280;109;19.806;-70.704;2022-10-26T05:33:19;101154.59;;;23.97;65.96
250;BME280;109;19.806;-70.704;2022-10-26T05:35:59;101150.41;;;23.91;65.97
250;BME280;109;19.806;-70.704;2022-10-26T05:38:31;101146.81;;;23.92;65.90
250;BME280;109;19.806;-70.704;2022-10-26T05:41:17;101131.78;;;23.90;66.33
250;BME280;109;19.806;-70.704;2022-10-26T05:43:51;101124.56;;;23.92;66.03
250;BME280;109;19.806;-70.704;2022-10-26T05:46:32;101111.97;;;23.94;66.32
250;BME280;109;19.806;-70.704;2022-10-26T05:48:58;101115.38;;;23.97;66.34
250;BME280;109;19.806;-70.704;2022-10-26T05:51:38;101108.22;;;23.98;66.19
250;BME280;109;19.806;-70.704;2022-10-26T05:54:04;101101.88;;;24.00;66.25
250;BME280;109;19.806;-70.704;2022-10-26T05:56:44;101093.94;;;23.99;66.36
250;BME280;109;19.806;-70.704;2022-10-26T05:59:24;101087.72;;;23.98;66.33
250;BME280;109;19.806;-70.704;2022-10-26T06:05:00;101082.16;;;24.03;66.17
250;BME280;109;19.806;-70.704;2022-10-26T06:07:34;101079.56;;;24.01;66.53
250;BME280;109;19.806;-70.704;2022-10-26T06:10:14;101072.47;;;24.00;66.23
250;BME280;109;19.806;-70.704;2022-10-26T06:12:41;101069.13;;;23.95;66.15
250;BME280;109;19.806;-70.704;2022-10-26T06:15:21;101077.44;;;23.89;66.04
250;BME280;109;19.806;-70.704;2022-10-26T06:24:06;101077.50;;;23.88;66.44
250;BME280;109;19.806;-70.704;2022-10-26T06:29:49;101075.81;;;23.85;66.48
250;BME280;109;19.806;-70.704;2022-10-26T06:32:28;101056.19;;;23.86;66.14
250;BME280;109;19.806;-70.704;2022-10-26T06:37:48;101040.75;;;23.93;65.98
250;BME280;109;19.806;-70.704;2022-10-26T06:40:37;101024.41;;;23.99;66.08
250;BME280;109;19.806;-70.704;2022-10-26T06:43:28;101012.84;;;23.98;66.36
250;BME280;109;19.806;-70.704;2022-10-26T06:52:19;101004.63;;;24.03;66.27
250;BME280;109;19.806;-70.704;2022-10-26T06:55:01;101007.38;;;24.01;66.50
250;BME280;109;19.806;-70.704;2022-10-26T06:57:32;101009.16;;;24.01;66.24
250;BME280;109;19.806;-70.704;2022-10-26T07:00:18;101004.16;;;23.93;66.48
250;BME280;109;19.806;-70.704;2022-10-26T07:02:52;101007.88;;;23.91;66.63
250;BME280;109;19.806;-70.704;2022-10-26T07:05:32;101007.06;;;23.89;66.68
250;BME280;109;19.806;-70.704;2022-10-26T07:07:58;101005.91;;;23.94;66.49
250;BME280;109;19.806;-70.704;2022-10-26T07:10:39;101005.13;;;23.92;66.65
250;BME280;109;19.806;-70.704;2022-10-26T07:13:08;101003.38;;;23.91;66.60
250;BME280;109;19.806;-70.704;2022-10-26T07:15:49;101004.66;;;23.83;66.75
250;BME280;109;19.806;-70.704;2022-10-26T07:18:15;101005.47;;;23.85;66.71
250;BME280;109;19.806;-70.704;2022-10-26T07:20:57;100994.84;;;23.83;66.80
250;BME280;109;19.806;-70.704;2022-10-26T07:23:24;100990.34;;;23.84;66.75
250;BME280;109;19.806;-70.704;2022-10-26T07:26:11;100990.22;;;23.87;66.66
250;BME280;109;19.806;-70.704;2022-10-26T07:28:47;100998.03;;;23.91;66.66
250;BME280;109;19.806;-70.704;2022-10-26T07:31:28;100991.81;;;23.91;66.56
250;BME280;109;19.806;-70.704;2022-10-26T07:33:54;100990.09;;;23.90;66.47
250;BME280;109;19.806;-70.704;2022-10-26T07:36:34;100990.97;;;23.90;66.51
250;BME280;109;19.806;-70.704;2022-10-26T07:39:03;100998.09;;;23.90;66.59
250;BME280;109;19.806;-70.704;2022-10-26T07:41:49;101006.19;;;23.88;66.61
250;BME280;109;19.806;-70.704;2022-10-26T07:44:29;101008.06;;;23.86;66.52
250;BME280;109;19.806;-70.704;2022-10-26T07:46:55;101005.31;;;23.88;66.45
250;BME280;109;19.806;-70.704;2022-10-26T07:49:36;101010.81;;;23.85;66.47
250;BME280;109;19.806;-70.704;2022-10-26T07:52:02;101004.59;;;23.84;66.37
250;BME280;109;19.806;-70.704;2022-10-26T07:54:42;101011.00;;;23.80;66.45
250;BME280;109;19.806;-70.704;2022-10-26T07:57:08;101010.00;;;23.83;66.45
250;BME280;109;19.806;-70.704;2022-10-26T07:59:49;101023.38;;;23.83;66.45
250;BME280;109;19.806;-70.704;2022-10-26T08:02:15;101012.91;;;23.78;66.54
250;BME280;109;19.806;-70.704;2022-10-26T08:04:56;101016.34;;;23.80;66.48
250;BME280;109;19.806;-70.704;2022-10-26T08:07:22;101019.03;;;23.80;66.34
250;BME280;109;19.806;-70.704;2022-10-26T08:10:02;101014.72;;;23.78;66.29
250;BME280;109;19.806;-70.704;2022-10-26T08:12:29;101011.00;;;23.80;66.44
250;BME280;109;19.806;-70.704;2022-10-26T08:15:09;101019.13;;;23.79;66.25
250;BME280;109;19.806;-70.704;2022-10-26T08:17:43;101026.22;;;23.80;66.34
250;BME280;109;19.806;-70.704;2022-10-26T08:20:24;101028.78;;;23.81;66.11
250;BME280;109;19.806;-70.704;2022-10-26T08:22:50;101024.22;;;23.83;66.36
250;BME280;109;19.806;-70.704;2022-10-26T08:25:33;101023.31;;;23.84;66.26
250;BME280;109;19.806;-70.704;2022-10-26T08:28:07;101027.84;;;23.82;66.27
250;BME280;109;19.806;-70.704;2022-10-26T08:30:47;101020.63;;;23.84;66.25
250;BME280;109;19.806;-70.704;2022-10-26T08:33:13;101015.50;;;23.80;66.49
250;BME280;109;19.806;-70.704;2022-10-26T08:35:55;101023.38;;;23.83;66.29
250;BME280;109;19.806;-70.704;2022-10-26T08:38:22;101034.13;;;23.81;66.35
250;BME280;109;19.806;-70.704;2022-10-26T08:41:08;101036.03;;;23.79;66.23
250;BME280;109;19.806;-70.704;2022-10-26T08:43:52;101027.34;;;23.74;66.37
250;BME280;109;19.806;-70.704;2022-10-26T08:46:38;101023.84;;;23.72;66.45
250;BME280;109;19.806;-70.704;2022-10-26T08:51:53;101028.47;;;23.68;66.36
250;BME280;109;19.806;-70.704;2022-10-26T08:54:38;101030.44;;;23.65;66.16
250;BME280;109;19.806;-70.704;2022-10-26T09:00:05;101025.88;;;23.67;66.32
250;BME280;109;19.806;-70.704;2022-10-26T09:02:39;101014.25;;;23.68;66.21
250;BME280;109;19.806;-70.704;2022-10-26T09:05:39;101017.72;;;23.70;66.20
250;BME280;109;19.806;-70.704;2022-10-26T09:16:41;101029.63;;;23.63;66.00
250;BME280;109;19.806;-70.704;2022-10-26T09:19:36;101025.97;;;23.65;66.22
250;BME280;109;19.806;-70.704;2022-10-26T09:22:31;101023.41;;;23.62;66.36
250;BME280;109;19.806;-70.704;2022-10-26T09:25:21;101026.97;;;23.63;66.26
250;BME280;109;19.806;-70.704;2022-10-26T09:27:56;101028.94;;;23.58;66.27
250;BME280;109;19.806;-70.704;2022-10-26T09:30:40;101025.44;;;23.56;66.24
250;BME280;109;19.806;-70.704;2022-10-26T09:33:15;101024.50;;;23.57;66.06
250;BME280;109;19.806;-70.704;2022-10-26T09:36:01;101017.66;;;23.51;66.08
250;BME280;109;19.806;-70.704;2022-10-26T09:41:38;101018.34;;;23.55;65.93
250;BME280;109;19.806;-70.704;2022-10-26T09:50:14;101024.72;;;23.52;65.93
250;BME280;109;19.806;-70.704;2022-10-26T09:52:49;101023.88;;;23.52;66.12
250;BME280;109;19.806;-70.704;2022-10-26T09:55:30;101031.06;;;23.50;66.06
250;BME280;109;19.806;-70.704;2022-10-26T09:58:11;101026.53;;;23.52;66.10
250;BME280;109;19.806;-70.704;2022-10-26T10:00:53;101022.13;;;23.51;66.00
250;BME280;109;19.806;-70.704;2022-10-26T10:03:24;101024.00;;;23.49;66.01
250;BME280;109;19.806;-70.704;2022-10-26T10:06:26;101013.72;;;23.40;66.04
250;BME280;109;19.806;-70.704;2022-10-26T10:09:19;101014.44;;;23.43;65.90
250;BME280;109;19.806;-70.704;2022-10-26T10:12:17;101004.56;;;23.45;66.04
250;BME280;109;19.806;-70.704;2022-10-26T10:14:58;101009.69;;;23.50;65.90
250;BME280;109;19.806;-70.704;2022-10-26T10:17:25;101001.47;;;23.54;65.89
250;BME280;109;19.806;-70.704;2022-10-26T10:20:08;101001.31;;;23.57;65.78
250;BME280;109;19.806;-70.704;2022-10-26T10:22:56;101003.09;;;23.58;65.68
250;BME280;109;19.806;-70.704;2022-10-26T10:28:20;101009.56;;;23.73;65.34
250;BME280;109;19.806;-70.704;2022-10-26T10:31:05;101017.50;;;23.75;65.38
250;BME280;109;19.806;-70.704;2022-10-26T10:33:56;101021.19;;;23.72;65.52
250;BME280;109;19.806;-70.704;2022-10-26T10:36:25;101015.84;;;23.72;65.61
250;BME280;109;19.806;-70.704;2022-10-26T10:42:24;101028.34;;;23.72;65.63
250;BME280;109;19.806;-70.704;2022-10-26T10:50:59;101022.78;;;23.76;65.45
250;BME280;109;19.806;-70.704;2022-10-26T10:53:54;101022.25;;;23.68;65.47
250;BME280;109;19.806;-70.704;2022-10-26T10:56:39;101023.06;;;23.70;65.59
250;BME280;109;19.806;-70.704;2022-10-26T11:10:23;101030.25;;;23.88;65.43
250;BME280;109;19.806;-70.704;2022-10-26T11:13:26;101040.88;;;23.90;65.26
250;BME280;109;19.806;-70.704;2022-10-26T11:16:06;101048.03;;;23.89;65.16
250;BME280;109;19.806;-70.704;2022-10-26T11:18:47;101058.06;;;23.84;65.39
250;BME280;109;19.806;-70.704;2022-10-26T11:21:28;101060.78;;;23.83;65.53
250;BME280;109;19.806;-70.704;2022-10-26T11:24:19;101067.00;;;23.83;65.43
250;BME280;109;19.806;-70.704;2022-10-26T11:32:14;101080.91;;;23.91;65.50
250;BME280;109;19.806;-70.704;2022-10-26T11:34:59;101079.88;;;23.94;65.58
250;BME280;109;19.806;-70.704;2022-10-26T11:37:36;101095.72;;;23.98;65.42
250;BME280;109;19.806;-70.704;2022-10-26T11:40:33;101104.97;;;23.91;65.61
250;BME280;109;19.806;-70.704;2022-10-26T11:43:36;101115.00;;;23.86;66.08
250;BME280;109;19.806;-70.704;2022-10-26T11:46:21;101117.66;;;23.86;65.75
250;BME280;109;19.806;-70.704;2022-10-26T11:53:30;101118.53;;;23.87;65.70
250;BME280;109;19.806;-70.704;2022-10-26T11:55:32;101118.47;;;23.88;65.62
250;BME280;109;19.806;-70.704;2022-10-26T11:57:59;101120.09;;;23.92;65.80
250;BME280;109;19.806;-70.704;2022-10-26T12:00:28;101131.28;;;24.00;65.81
250;BME280;109;19.806;-70.704;2022-10-26T12:03:00;101132.09;;;24.02;65.80
250;BME280;109;19.806;-70.704;2022-10-26T12:10:48;101138.88;;;24.10;65.85
250;BME280;109;19.806;-70.704;2022-10-26T12:13:37;101136.16;;;24.11;65.86
250;BME280;109;19.806;-70.704;2022-10-26T12:20:04;101131.00;;;24.46;65.13
250;BME280;109;19.806;-70.704;2022-10-26T12:22:16;101139.88;;;24.66;64.88
250;BME280;109;19.806;-70.704;2022-10-26T12:24:44;101159.94;;;24.95;64.58
250;BME280;109;19.806;-70.704;2022-10-26T12:35:34;101184.34;;;25.44;63.23
250;BME280;109;19.806;-70.704;2022-10-26T12:41:17;101178.88;;;25.99;62.40
250;BME280;109;19.806;-70.704;2022-10-26T12:43:44;101176.06;;;26.17;61.95
250;BME280;109;19.806;-70.704;2022-10-26T12:54:27;101166.72;;;26.91;60.81
250;BME280;109;19.806;-70.704;2022-10-26T13:00:05;101160.06;;;26.98;60.08
250;BME280;109;19.806;-70.704;2022-10-26T13:08:03;101161.41;;;27.36;58.82
250;BME280;109;19.806;-70.704;2022-10-26T13:10:31;101156.09;;;27.35;58.76
250;BME280;109;19.806;-70.704;2022-10-26T13:13:00;101167.13;;;27.46;59.33
250;BME280;109;19.806;-70.704;2022-10-26T13:15:28;101170.16;;;27.55;59.07
250;BME280;109;19.806;-70.704;2022-10-26T13:20:49;101172.97;;;27.68;58.46
250;BME280;109;19.806;-70.704;2022-10-26T13:23:27;101181.91;;;27.69;58.72
250;BME280;109;19.806;-70.704;2022-10-26T13:26:08;101178.56;;;27.49;58.26
250;BME280;109;19.806;-70.704;2022-10-26T13:34:13;101179.56;;;27.92;58.18
250;BME280;109;19.806;-70.704;2022-10-26T13:39:40;101186.13;;;27.73;57.55
250;BME280;109;19.806;-70.704;2022-10-26T13:42:14;101187.88;;;27.74;58.31
250;BME280;109;19.806;-70.704;2022-10-26T13:45:05;101187.38;;;27.67;57.99
250;BME280;109;19.806;-70.704;2022-10-26T13:50:27;101188.66;;;28.06;57.85
250;BME280;109;19.806;-70.704;2022-10-26T13:52:58;101178.88;;;28.19;57.33
250;BME280;109;19.806;-70.704;2022-10-26T13:55:39;101175.88;;;28.23;57.10
250;BME280;109;19.806;-70.704;2022-10-26T13:58:27;101183.19;;;28.36;56.97
250;BME280;109;19.806;-70.704;2022-10-26T14:03:35;101185.81;;;28.51;57.08
250;BME280;109;19.806;-70.704;2022-10-26T14:06:30;101187.38;;;28.55;56.78
250;BME280;109;19.806;-70.704;2022-10-26T14:09:00;101188.78;;;28.61;56.91
250;BME280;109;19.806;-70.704;2022-10-26T14:11:43;101187.94;;;28.60;56.25
250;BME280;109;19.806;-70.704;2022-10-26T14:14:18;101184.94;;;28.65;56.37
250;BME280;109;19.806;-70.704;2022-10-26T14:16:48;101184.84;;;28.67;56.60
250;BME280;109;19.806;-70.704;2022-10-26T14:19:23;101191.88;;;28.55;56.28
250;BME280;109;19.806;-70.704;2022-10-26T14:21:51;101199.38;;;28.64;56.46
250;BME280;109;19.806;-70.704;2022-10-26T14:24:26;101194.94;;;28.63;56.89
250;BME280;109;19.806;-70.704;2022-10-26T14:26:53;101197.34;;;28.68;56.85
250;BME280;109;19.806;-70.704;2022-10-26T14:29:21;101190.50;;;28.62;56.16
250;BME280;109;19.806;-70.704;2022-10-26T14:31:49;101195.63;;;28.52;56.50
250;BME280;109;19.806;-70.704;2022-10-26T14:34:17;101194.66;;;28.53;57.13
250;BME280;109;19.806;-70.704;2022-10-26T14:36:57;101194.38;;;28.58;56.30
250;BME280;109;19.806;-70.704;2022-10-26T14:39:31;101190.13;;;28.68;56.08
250;BME280;109;19.806;-70.704;2022-10-26T14:42:02;101186.88;;;28.63;56.26
250;BME280;109;19.806;-70.704;2022-10-26T14:44:31;101186.84;;;28.77;56.46
250;BME280;109;19.806;-70.704;2022-10-26T14:46:58;101186.56;;;28.82;55.88
250;BME280;109;19.806;-70.704;2022-10-26T14:49:26;101189.63;;;28.76;56.71
250;BME280;109;19.806;-70.704;2022-10-26T14:52:04;101191.84;;;28.83;55.65
250;BME280;109;19.806;-70.704;2022-10-26T14:54:31;101193.97;;;28.78;56.57
250;BME280;109;19.806;-70.704;2022-10-26T14:56:59;101190.81;;;28.57;56.80
250;BME280;109;19.806;-70.704;2022-10-26T14:59:33;101180.75;;;28.88;57.31
250;BME280;109;19.806;-70.704;2022-10-26T15:02:15;101182.03;;;28.82;55.12
250;BME280;109;19.806;-70.704;2022-10-26T15:05:14;101181.66;;;28.74;56.12
250;BME280;109;19.806;-70.704;2022-10-26T15:07:42;101186.72;;;28.93;55.73
250;BME280;109;19.806;-70.704;2022-10-26T15:13:26;101171.25;;;28.82;55.64
250;BME280;109;19.806;-70.704;2022-10-26T15:15:57;101167.28;;;28.88;55.69
250;BME280;109;19.806;-70.704;2022-10-26T15:18:33;101170.06;;;29.01;54.26
250;BME280;109;19.806;-70.704;2022-10-26T15:21:01;101163.34;;;29.08;54.82
250;BME280;109;19.806;-70.704;2022-10-26T15:23:28;101170.56;;;28.93;55.12
250;BME280;109;19.806;-70.704;2022-10-26T15:26:00;101169.13;;;29.02;54.39
250;BME280;109;19.806;-70.704;2022-10-26T15:30:59;101168.81;;;28.92;54.49
250;BME280;109;19.806;-70.704;2022-10-26T15:33:26;101160.66;;;28.93;54.67
250;BME280;109;19.806;-70.704;2022-10-26T15:38:41;101151.13;;;28.88;54.41
250;BME280;109;19.806;-70.704;2022-10-26T15:41:20;101147.88;;;28.83;54.72
250;BME280;109;19.806;-70.704;2022-10-26T15:43:48;101146.06;;;28.98;55.01
250;BME280;109;19.806;-70.704;2022-10-26T15:46:15;101141.88;;;28.92;56.22
250;BME280;109;19.806;-70.704;2022-10-26T15:48:42;101145.97;;;28.85;55.44
250;BME280;109;19.806;-70.704;2022-10-26T15:51:13;101144.22;;;28.84;55.97
250;BME280;109;19.806;-70.704;2022-10-26T15:53:39;101133.16;;;28.74;55.74
250;BME280;109;19.806;-70.704;2022-10-26T15:56:16;101128.56;;;28.62;55.36
250;BME280;109;19.806;-70.704;2022-10-26T15:58:44;101127.13;;;28.71;56.34
250;BME280;109;19.806;-70.704;2022-10-26T16:01:18;101120.00;;;28.70;55.93
250;BME280;109;19.806;-70.704;2022-10-26T16:03:46;101112.72;;;28.57;55.80
250;BME280;109;19.806;-70.704;2022-10-26T16:06:18;101109.38;;;28.54;56.59
250;BME280;109;19.806;-70.704;2022-10-26T16:08:51;101113.13;;;28.51;56.42
250;BME280;109;19.806;-70.704;2022-10-26T16:11:18;101104.06;;;28.52;57.21
250;BME280;109;19.806;-70.704;2022-10-26T16:13:45;101100.50;;;28.66;57.35
250;BME280;109;19.806;-70.704;2022-10-26T16:16:12;101097.59;;;28.69;56.78
250;BME280;109;19.806;-70.704;2022-10-26T16:18:39;101089.91;;;28.63;56.91
250;BME280;109;19.806;-70.704;2022-10-26T16:21:13;101093.63;;;28.75;56.33
250;BME280;109;19.806;-70.704;2022-10-26T16:23:40;101088.75;;;28.67;57.61
250;BME280;109;19.806;-70.704;2022-10-26T16:26:07;101080.31;;;28.59;57.23
250;BME280;109;19.806;-70.704;2022-10-26T16:28:35;101078.09;;;28.51;57.17
250;BME280;109;19.806;-70.704;2022-10-26T16:31:03;101084.00;;;28.30;56.42
250;BME280;109;19.806;-70.704;2022-10-26T16:33:30;101077.91;;;28.40;55.86
250;BME280;109;19.806;-70.704;2022-10-26T16:35:57;101080.81;;;28.78;57.46
250;BME280;109;19.806;-70.704;2022-10-26T16:38:25;101082.66;;;28.78;57.25
250;BME280;109;19.806;-70.704;2022-10-26T16:41:05;101084.56;;;28.76;56.61
250;BME280;109;19.806;-70.704;2022-10-26T16:43:34;101086.75;;;28.56;56.88
250;BME280;109;19.806;-70.704;2022-10-26T16:46:08;101077.16;;;28.52;55.95
250;BME280;109;19.806;-70.704;2022-10-26T16:48:39;101077.16;;;28.79;54.92
250;BME280;109;19.806;-70.704;2022-10-26T16:51:14;101069.59;;;28.72;57.40
250;BME280;109;19.806;-70.704;2022-10-26T16:53:41;101064.41;;;28.69;57.65